createdAt,value
2022-09-04T00:00:05.087Z,16.76
2022-09-04T00:01:05.005Z,16.72
2022-09-04T00:02:04.931Z,16.72
2022-09-04T00:03:04.858Z,16.58
2022-09-04T00:04:04.843Z,16.61
2022-09-04T00:05:04.887Z,16.53
2022-09-04T00:06:04.620Z,16.58
2022-09-04T00:07:04.554Z,16.60
2022-09-04T00:08:04.470Z,16.50
2022-09-04T00:09:04.390Z,16.56
2022-09-04T00:10:04.311Z,16.53
2022-09-04T00:11:04.237Z,16.57
2022-09-04T00:12:04.160Z,16.50
2022-09-04T00:13:04.083Z,16.57
2022-09-04T00:14:04.005Z,16.51
2022-09-04T00:15:03.926Z,16.54
2022-09-04T00:16:03.851Z,16.50
2022-09-04T00:17:03.861Z,16.35
2022-09-04T00:18:03.693Z,16.39
2022-09-04T00:19:03.613Z,16.36
2022-09-04T00:20:03.537Z,16.39
2022-09-04T00:21:03.458Z,16.41
2022-09-04T00:22:03.384Z,16.39
2022-09-04T00:23:03.304Z,16.33
2022-09-04T00:24:03.230Z,16.31
2022-09-04T00:25:03.153Z,16.35
2022-09-04T00:26:03.073Z,16.31
2022-09-04T00:27:03.000Z,16.29
2022-09-04T00:28:02.922Z,16.29
2022-09-04T00:29:02.841Z,16.28
2022-09-04T00:30:02.766Z,16.28
2022-09-04T00:31:02.762Z,16.28
2022-09-04T00:32:02.609Z,16.28
2022-09-04T00:33:02.532Z,16.24
2022-09-04T00:34:02.454Z,16.26
2022-09-04T00:35:02.382Z,16.32
2022-09-04T00:36:02.299Z,16.24
2022-09-04T00:37:02.225Z,16.28
2022-09-04T00:38:02.143Z,16.24
2022-09-04T00:39:02.067Z,16.17
2022-09-04T00:40:02.030Z,16.16
2022-09-04T00:41:01.918Z,16.17
2022-09-04T00:42:01.832Z,16.16
2022-09-04T00:43:01.763Z,16.13
2022-09-04T00:44:01.683Z,16.17
2022-09-04T00:45:01.605Z,16.12
2022-09-04T00:46:01.570Z,16.17
2022-09-04T00:47:01.447Z,16.05
2022-09-04T00:48:01.375Z,16.16
2022-09-04T00:49:01.300Z,16.15
2022-09-04T00:50:01.218Z,16.12
2022-09-04T00:51:01.155Z,16.13
2022-09-04T00:52:01.064Z,16.10
2022-09-04T00:53:00.985Z,16.09
2022-09-04T00:54:00.908Z,16.10
2022-09-04T00:55:00.826Z,16.12
2022-09-04T00:56:00.750Z,16.13
2022-09-04T00:57:00.674Z,16.08
2022-09-04T00:58:00.595Z,16.05
2022-09-04T00:59:00.519Z,16.02
2022-09-04T01:00:00.442Z,16.05
2022-09-04T01:01:00.595Z,16.05
2022-09-04T01:02:00.459Z,15.94
2022-09-04T01:03:00.207Z,15.98
2022-09-04T01:04:00.132Z,15.98
2022-09-04T01:05:00.061Z,15.97
2022-09-04T01:05:59.975Z,15.92
2022-09-04T01:06:59.897Z,15.97
2022-09-04T01:07:59.815Z,15.98
2022-09-04T01:08:59.750Z,15.97
2022-09-04T01:09:59.668Z,15.90
2022-09-04T01:10:59.584Z,16.00
2022-09-04T01:11:59.510Z,15.86
2022-09-04T01:12:59.429Z,15.91
2022-09-04T01:13:59.352Z,15.92
2022-09-04T01:14:59.282Z,15.90
2022-09-04T01:15:59.197Z,15.91
2022-09-04T01:16:59.124Z,15.82
2022-09-04T01:17:59.043Z,15.90
2022-09-04T01:18:58.969Z,15.77
2022-09-04T01:19:58.897Z,15.79
2022-09-04T01:20:58.812Z,15.77
2022-09-04T01:21:58.728Z,15.77
2022-09-04T01:22:58.663Z,15.77
2022-09-04T01:23:58.573Z,15.62
2022-09-04T01:24:58.500Z,15.72
2022-09-04T01:25:58.436Z,15.72
2022-09-04T01:26:58.343Z,15.67
2022-09-04T01:27:58.278Z,15.65
2022-09-04T01:28:58.196Z,15.65
2022-09-04T01:29:58.115Z,15.65
2022-09-04T01:30:58.035Z,15.62
2022-09-04T01:31:57.989Z,15.65
2022-09-04T01:32:57.877Z,15.59
2022-09-04T01:33:57.803Z,15.58
2022-09-04T01:34:57.725Z,15.59
2022-09-04T01:35:57.642Z,15.57
2022-09-04T01:36:57.561Z,15.59
2022-09-04T01:37:57.486Z,15.64
2022-09-04T01:38:57.414Z,15.65
2022-09-04T01:39:57.354Z,15.65
2022-09-04T01:40:57.258Z,15.57
2022-09-04T01:41:57.175Z,15.70
2022-09-04T01:42:57.094Z,15.61
2022-09-04T01:43:57.029Z,15.57
2022-09-04T01:44:56.946Z,15.51
2022-09-04T01:45:56.950Z,15.58
2022-09-04T01:46:56.791Z,15.57
2022-09-04T01:47:56.709Z,15.54
2022-09-04T01:48:56.638Z,15.51
2022-09-04T01:49:56.550Z,15.55
2022-09-04T01:50:56.483Z,15.52
2022-09-04T01:51:56.396Z,15.47
2022-09-04T01:52:56.322Z,15.58
2022-09-04T01:53:56.245Z,15.55
2022-09-04T01:54:56.175Z,15.54
2022-09-04T01:55:56.087Z,15.54
2022-09-04T01:56:56.013Z,15.51
2022-09-04T01:57:55.929Z,15.57
2022-09-04T01:58:55.852Z,15.52
2022-09-04T01:59:55.777Z,15.54
2022-09-04T02:00:57.702Z,15.47
2022-09-04T02:01:55.671Z,15.47
2022-09-04T02:02:55.549Z,15.51
2022-09-04T02:03:55.459Z,15.46
2022-09-04T02:04:55.384Z,15.49
2022-09-04T02:05:55.310Z,15.47
2022-09-04T02:06:55.229Z,15.54
2022-09-04T02:07:55.154Z,15.54
2022-09-04T02:08:55.077Z,15.47
2022-09-04T02:09:54.993Z,15.52
2022-09-04T02:10:54.920Z,15.57
2022-09-04T02:11:57.152Z,15.52
2022-09-04T02:12:54.764Z,15.54
2022-09-04T02:13:54.682Z,15.46
2022-09-04T02:14:54.608Z,15.49
2022-09-04T02:15:54.555Z,15.49
2022-09-04T02:16:54.450Z,15.43
2022-09-04T02:17:54.371Z,15.39
2022-09-04T02:18:54.291Z,15.40
2022-09-04T02:19:54.213Z,15.33
2022-09-04T02:20:54.140Z,15.37
2022-09-04T02:21:54.059Z,15.31
2022-09-04T02:22:53.980Z,15.35
2022-09-04T02:23:53.907Z,15.22
2022-09-04T02:24:53.831Z,15.25
2022-09-04T02:25:53.749Z,15.24
2022-09-04T02:26:53.668Z,15.24
2022-09-04T02:27:53.589Z,15.25
2022-09-04T02:28:53.510Z,15.24
2022-09-04T02:29:53.438Z,15.22
2022-09-04T02:30:54.109Z,15.17
2022-09-04T02:31:53.328Z,15.10
2022-09-04T02:32:53.206Z,15.27
2022-09-04T02:33:53.124Z,15.11
2022-09-04T02:34:53.044Z,15.14
2022-09-04T02:35:52.965Z,15.10
2022-09-04T02:36:52.886Z,15.14
2022-09-04T02:37:52.812Z,15.19
2022-09-04T02:38:52.732Z,15.22
2022-09-04T02:39:52.739Z,15.24
2022-09-04T02:40:52.594Z,15.10
2022-09-04T02:41:52.503Z,15.18
2022-09-04T02:42:52.422Z,15.18
2022-09-04T02:43:52.341Z,15.14
2022-09-04T02:44:52.264Z,15.14
2022-09-04T02:45:52.190Z,15.09
2022-09-04T02:46:52.146Z,15.17
2022-09-04T02:47:52.029Z,15.14
2022-09-04T02:48:51.953Z,15.18
2022-09-04T02:49:51.876Z,15.17
2022-09-04T02:50:51.797Z,15.18
2022-09-04T02:51:51.714Z,15.09
2022-09-04T02:52:51.637Z,15.11
2022-09-04T02:53:51.561Z,15.09
2022-09-04T02:54:51.489Z,15.17
2022-09-04T02:55:51.407Z,15.11
2022-09-04T02:56:51.323Z,15.19
2022-09-04T02:57:51.247Z,15.07
2022-09-04T02:58:51.168Z,15.10
2022-09-04T02:59:51.094Z,15.14
2022-09-04T03:00:51.051Z,15.14
2022-09-04T03:01:50.998Z,15.14
2022-09-04T03:02:50.853Z,15.15
2022-09-04T03:03:50.777Z,15.15
2022-09-04T03:04:50.698Z,14.99
2022-09-04T03:05:50.621Z,15.14
2022-09-04T03:06:50.549Z,15.15
2022-09-04T03:07:50.467Z,15.21
2022-09-04T03:08:50.392Z,15.07
2022-09-04T03:09:50.306Z,15.07
2022-09-04T03:10:50.232Z,15.19
2022-09-04T03:11:50.154Z,15.14
2022-09-04T03:12:50.073Z,15.15
2022-09-04T03:13:49.998Z,15.17
2022-09-04T03:14:49.920Z,15.15
2022-09-04T03:15:49.865Z,15.11
2022-09-04T03:16:49.770Z,15.21
2022-09-04T03:17:49.683Z,15.14
2022-09-04T03:18:49.605Z,15.11
2022-09-04T03:19:49.531Z,15.11
2022-09-04T03:20:49.450Z,15.18
2022-09-04T03:21:49.376Z,15.11
2022-09-04T03:22:49.291Z,15.10
2022-09-04T03:23:49.215Z,15.17
2022-09-04T03:24:49.133Z,15.10
2022-09-04T03:25:49.055Z,15.15
2022-09-04T03:26:48.982Z,15.11
2022-09-04T03:27:48.903Z,15.11
2022-09-04T03:28:48.821Z,15.11
2022-09-04T03:29:48.748Z,15.11
2022-09-04T03:30:48.669Z,15.14
2022-09-04T03:31:48.629Z,15.18
2022-09-04T03:32:48.512Z,15.07
2022-09-04T03:33:48.432Z,15.06
2022-09-04T03:34:48.352Z,15.04
2022-09-04T03:35:48.277Z,14.97
2022-09-04T03:36:48.203Z,15.06
2022-09-04T03:37:48.119Z,14.96
2022-09-04T03:38:48.040Z,15.06
2022-09-04T03:39:48.010Z,15.07
2022-09-04T03:40:47.888Z,14.99
2022-09-04T03:41:47.805Z,14.92
2022-09-04T03:42:47.725Z,15.02
2022-09-04T03:43:47.647Z,15.00
2022-09-04T03:44:47.573Z,15.04
2022-09-04T03:45:47.495Z,14.96
2022-09-04T03:46:47.506Z,15.04
2022-09-04T03:47:47.336Z,14.92
2022-09-04T03:48:47.257Z,15.00
2022-09-04T03:49:47.184Z,14.91
2022-09-04T03:50:47.106Z,14.96
2022-09-04T03:51:47.021Z,14.99
2022-09-04T03:52:46.943Z,14.92
2022-09-04T03:53:46.870Z,14.99
2022-09-04T03:54:46.787Z,14.94
2022-09-04T03:55:46.712Z,14.94
2022-09-04T03:56:46.630Z,14.92
2022-09-04T03:57:46.556Z,14.91
2022-09-04T03:58:46.473Z,14.94
2022-09-04T03:59:46.394Z,14.99
2022-09-04T04:00:46.353Z,14.97
2022-09-04T04:01:46.243Z,14.91
2022-09-04T04:02:46.204Z,14.91
2022-09-04T04:03:46.078Z,14.91
2022-09-04T04:04:46.007Z,14.99
2022-09-04T04:05:48.246Z,14.99
2022-09-04T04:06:45.848Z,14.97
2022-09-04T04:07:45.772Z,14.92
2022-09-04T04:08:45.691Z,14.99
2022-09-04T04:09:45.615Z,15.00
2022-09-04T04:10:45.535Z,15.02
2022-09-04T04:11:45.451Z,15.03
2022-09-04T04:12:45.380Z,15.00
2022-09-04T04:13:45.299Z,15.06
2022-09-04T04:14:45.224Z,15.03
2022-09-04T04:15:45.175Z,15.03
2022-09-04T04:16:46.977Z,15.02
2022-09-04T04:17:44.982Z,14.97
2022-09-04T04:18:44.906Z,15.14
2022-09-04T04:19:44.832Z,15.11
2022-09-04T04:20:44.749Z,15.04
2022-09-04T04:21:44.673Z,15.02
2022-09-04T04:22:44.593Z,15.18
2022-09-04T04:23:44.513Z,15.14
2022-09-04T04:24:44.440Z,15.19
2022-09-04T04:25:44.368Z,15.11
2022-09-04T04:26:44.279Z,15.11
2022-09-04T04:27:44.218Z,15.11
2022-09-04T04:28:44.127Z,15.15
2022-09-04T04:29:44.043Z,15.21
2022-09-04T04:30:43.966Z,15.28
2022-09-04T04:31:43.922Z,15.27
2022-09-04T04:32:43.818Z,15.17
2022-09-04T04:33:43.762Z,15.24
2022-09-04T04:34:43.656Z,15.27
2022-09-04T04:35:43.574Z,15.24
2022-09-04T04:36:43.498Z,15.22
2022-09-04T04:37:43.427Z,15.18
2022-09-04T04:38:43.345Z,15.24
2022-09-04T04:39:43.331Z,15.27
2022-09-04T04:40:43.181Z,15.24
2022-09-04T04:41:43.110Z,15.21
2022-09-04T04:42:43.029Z,15.24
2022-09-04T04:43:42.954Z,15.24
2022-09-04T04:44:42.872Z,15.22
2022-09-04T04:45:42.797Z,15.24
2022-09-04T04:46:42.788Z,15.29
2022-09-04T04:47:42.637Z,15.27
2022-09-04T04:48:42.560Z,15.29
2022-09-04T04:49:42.484Z,15.36
2022-09-04T04:50:42.402Z,15.35
2022-09-04T04:51:42.337Z,15.39
2022-09-04T04:52:42.244Z,15.35
2022-09-04T04:53:42.167Z,15.39
2022-09-04T04:54:42.091Z,15.33
2022-09-04T04:55:42.016Z,15.44
2022-09-04T04:56:41.934Z,15.44
2022-09-04T04:57:41.858Z,15.43
2022-09-04T04:58:41.780Z,15.44
2022-09-04T04:59:41.696Z,15.43
2022-09-04T05:00:41.622Z,15.44
2022-09-04T05:01:41.660Z,15.44
2022-09-04T05:02:41.596Z,15.43
2022-09-04T05:03:41.387Z,15.44
2022-09-04T05:04:41.305Z,15.40
2022-09-04T05:05:41.233Z,15.42
2022-09-04T05:06:41.149Z,15.44
2022-09-04T05:07:41.072Z,15.44
2022-09-04T05:08:40.990Z,15.46
2022-09-04T05:09:40.915Z,15.43
2022-09-04T05:10:40.838Z,15.46
2022-09-04T05:11:40.760Z,15.54
2022-09-04T05:12:40.686Z,15.49
2022-09-04T05:13:40.608Z,15.59
2022-09-04T05:14:40.526Z,15.55
2022-09-04T05:15:58.239Z,15.49
2022-09-04T05:16:40.416Z,15.49
2022-09-04T05:17:40.290Z,15.52
2022-09-04T05:18:40.222Z,15.49
2022-09-04T05:19:40.131Z,15.62
2022-09-04T05:20:40.060Z,15.61
2022-09-04T05:21:39.974Z,15.59
2022-09-04T05:22:39.900Z,15.67
2022-09-04T05:23:39.830Z,15.65
2022-09-04T05:24:39.755Z,15.65
2022-09-04T05:25:39.671Z,15.65
2022-09-04T05:26:39.587Z,15.62
2022-09-04T05:27:39.511Z,15.70
2022-09-04T05:28:39.429Z,15.72
2022-09-04T05:29:39.355Z,15.68
2022-09-04T05:30:39.276Z,15.68
2022-09-04T05:31:39.225Z,15.70
2022-09-04T05:32:39.122Z,15.65
2022-09-04T05:33:39.037Z,15.76
2022-09-04T05:34:38.965Z,15.72
2022-09-04T05:35:38.881Z,15.77
2022-09-04T05:36:38.805Z,15.80
2022-09-04T05:37:38.727Z,15.83
2022-09-04T05:38:38.648Z,15.91
2022-09-04T05:39:38.609Z,15.76
2022-09-04T05:40:38.490Z,15.79
2022-09-04T05:41:38.420Z,15.79
2022-09-04T05:42:38.337Z,15.77
2022-09-04T05:43:38.265Z,15.86
2022-09-04T05:44:38.186Z,15.86
2022-09-04T05:45:38.106Z,15.95
2022-09-04T05:46:38.082Z,15.83
2022-09-04T05:47:37.949Z,15.91
2022-09-04T05:48:37.868Z,15.90
2022-09-04T05:49:37.804Z,15.86
2022-09-04T05:50:37.717Z,15.98
2022-09-04T05:51:37.637Z,16.04
2022-09-04T05:52:37.556Z,16.05
2022-09-04T05:53:37.495Z,16.17
2022-09-04T05:54:37.408Z,16.16
2022-09-04T05:55:37.325Z,16.24
2022-09-04T05:56:37.246Z,16.31
2022-09-04T05:57:37.174Z,16.29
2022-09-04T05:58:37.095Z,16.42
2022-09-04T05:59:37.015Z,16.38
2022-09-04T06:00:36.940Z,16.51
2022-09-04T06:01:36.903Z,16.53
2022-09-04T06:02:36.818Z,16.53
2022-09-04T06:03:36.704Z,16.49
2022-09-04T06:04:36.623Z,16.54
2022-09-04T06:05:36.551Z,16.60
2022-09-04T06:06:36.471Z,16.66
2022-09-04T06:07:36.396Z,16.61
2022-09-04T06:08:36.312Z,16.61
2022-09-04T06:09:36.236Z,16.65
2022-09-04T06:10:36.167Z,16.75
2022-09-04T06:11:36.080Z,16.68
2022-09-04T06:12:36.000Z,16.79
2022-09-04T06:13:35.929Z,16.81
2022-09-04T06:14:35.851Z,16.89
2022-09-04T06:15:35.981Z,16.91
2022-09-04T06:16:35.694Z,16.96
2022-09-04T06:17:35.621Z,16.96
2022-09-04T06:18:35.539Z,16.96
2022-09-04T06:19:35.456Z,17.01
2022-09-04T06:20:35.387Z,16.94
2022-09-04T06:21:35.302Z,16.97
2022-09-04T06:22:35.229Z,17.01
2022-09-04T06:23:35.154Z,17.06
2022-09-04T06:24:35.075Z,17.06
2022-09-04T06:25:34.993Z,17.06
2022-09-04T06:26:34.917Z,17.09
2022-09-04T06:27:35.417Z,17.12
2022-09-04T06:28:34.766Z,17.09
2022-09-04T06:29:34.688Z,17.04
2022-09-04T06:30:34.627Z,17.09
2022-09-04T06:31:34.574Z,17.08
2022-09-04T06:32:34.458Z,17.15
2022-09-04T06:33:34.380Z,17.20
2022-09-04T06:34:34.302Z,17.20
2022-09-04T06:35:34.221Z,17.22
2022-09-04T06:36:34.143Z,17.31
2022-09-04T06:37:34.069Z,17.29
2022-09-04T06:38:33.997Z,17.27
2022-09-04T06:39:34.087Z,17.29
2022-09-04T06:40:33.837Z,17.31
2022-09-04T06:41:33.756Z,17.34
2022-09-04T06:42:33.681Z,17.38
2022-09-04T06:43:33.600Z,17.38
2022-09-04T06:44:33.529Z,17.31
2022-09-04T06:45:33.452Z,17.36
2022-09-04T06:46:33.428Z,17.38
2022-09-04T06:47:33.301Z,17.42
2022-09-04T06:48:33.217Z,17.45
2022-09-04T06:49:33.152Z,17.42
2022-09-04T06:50:33.065Z,17.45
2022-09-04T06:51:32.989Z,17.38
2022-09-04T06:52:32.910Z,17.38
2022-09-04T06:53:32.830Z,17.48
2022-09-04T06:54:32.759Z,17.39
2022-09-04T06:55:32.674Z,17.39
2022-09-04T06:56:32.598Z,17.49
2022-09-04T06:57:32.526Z,17.51
2022-09-04T06:58:32.447Z,17.57
2022-09-04T06:59:32.368Z,17.54
2022-09-04T07:00:32.294Z,17.51
2022-09-04T07:01:32.337Z,17.63
2022-09-04T07:02:32.233Z,17.59
2022-09-04T07:03:32.063Z,17.60
2022-09-04T07:04:31.983Z,17.65
2022-09-04T07:05:31.906Z,17.67
2022-09-04T07:06:31.831Z,17.67
2022-09-04T07:07:31.750Z,17.64
2022-09-04T07:08:31.675Z,17.65
2022-09-04T07:09:31.603Z,17.68
2022-09-04T07:10:31.527Z,17.67
2022-09-04T07:11:31.445Z,17.71
2022-09-04T07:12:31.374Z,17.78
2022-09-04T07:13:31.295Z,17.83
2022-09-04T07:14:31.216Z,17.86
2022-09-04T07:15:31.197Z,17.94
2022-09-04T07:16:31.061Z,18.00
2022-09-04T07:17:30.984Z,18.05
2022-09-04T07:18:30.905Z,18.10
2022-09-04T07:19:30.837Z,18.07
2022-09-04T07:20:30.766Z,18.16
2022-09-04T07:21:30.673Z,18.20
2022-09-04T07:22:30.599Z,18.07
2022-09-04T07:23:30.523Z,18.13
2022-09-04T07:24:30.449Z,18.16
2022-09-04T07:25:30.363Z,18.18
2022-09-04T07:26:30.289Z,18.19
2022-09-04T07:27:30.216Z,18.07
2022-09-04T07:28:30.141Z,18.08
2022-09-04T07:29:30.065Z,18.00
2022-09-04T07:30:29.985Z,18.07
2022-09-04T07:31:29.962Z,18.05
2022-09-04T07:32:29.830Z,18.04
2022-09-04T07:33:29.758Z,18.05
2022-09-04T07:34:29.677Z,18.11
2022-09-04T07:35:29.605Z,18.10
2022-09-04T07:36:31.883Z,18.33
2022-09-04T07:37:29.451Z,18.28
2022-09-04T07:38:29.370Z,18.26
2022-09-04T07:39:29.387Z,18.31
2022-09-04T07:40:30.830Z,18.28
2022-09-04T07:41:29.142Z,18.40
2022-09-04T07:42:30.933Z,18.33
2022-09-04T07:43:28.989Z,18.41
2022-09-04T07:44:28.912Z,18.55
2022-09-04T07:45:28.835Z,18.60
2022-09-04T07:46:28.798Z,18.56
2022-09-04T07:47:28.680Z,18.62
2022-09-04T07:48:28.615Z,18.70
2022-09-04T07:49:28.529Z,18.75
2022-09-04T07:50:28.451Z,18.78
2022-09-04T07:51:28.379Z,18.89
2022-09-04T07:52:28.300Z,18.84
2022-09-04T07:53:28.228Z,18.93
2022-09-04T07:54:28.152Z,18.92
2022-09-04T07:55:28.068Z,19.08
2022-09-04T07:56:27.997Z,19.12
2022-09-04T07:57:27.917Z,19.15
2022-09-04T07:58:27.846Z,19.18
2022-09-04T07:59:27.766Z,19.29
2022-09-04T08:00:27.686Z,19.26
2022-09-04T08:01:27.639Z,19.27
2022-09-04T08:02:27.539Z,19.31
2022-09-04T08:03:27.462Z,19.39
2022-09-04T08:04:27.436Z,19.45
2022-09-04T08:05:27.309Z,19.41
2022-09-04T08:06:27.231Z,19.52
2022-09-04T08:07:27.152Z,19.49
2022-09-04T08:08:27.086Z,19.58
2022-09-04T08:09:27.003Z,19.51
2022-09-04T08:10:26.927Z,19.58
2022-09-04T08:11:26.856Z,19.58
2022-09-04T08:12:26.774Z,19.49
2022-09-04T08:13:26.700Z,19.58
2022-09-04T08:14:26.626Z,19.55
2022-09-04T08:15:26.567Z,19.49
2022-09-04T08:16:26.557Z,19.59
2022-09-04T08:17:26.396Z,19.58
2022-09-04T08:18:26.360Z,19.51
2022-09-04T08:19:26.243Z,19.58
2022-09-04T08:20:26.185Z,19.51
2022-09-04T08:21:26.105Z,19.52
2022-09-04T08:22:28.333Z,19.56
2022-09-04T08:23:25.944Z,19.55
2022-09-04T08:24:25.877Z,19.67
2022-09-04T08:25:25.788Z,19.70
2022-09-04T08:26:25.717Z,19.64
2022-09-04T08:27:25.739Z,19.67
2022-09-04T08:28:25.692Z,19.79
2022-09-04T08:29:25.483Z,19.88
2022-09-04T08:30:25.409Z,19.84
2022-09-04T08:31:25.402Z,19.91
2022-09-04T08:32:25.256Z,19.95
2022-09-04T08:33:25.184Z,19.99
2022-09-04T08:34:25.109Z,20.03
2022-09-04T08:35:25.030Z,20.07
2022-09-04T08:36:24.961Z,20.04
2022-09-04T08:37:24.876Z,20.06
2022-09-04T08:38:24.866Z,20.03
2022-09-04T08:39:24.753Z,19.99
2022-09-04T08:40:24.652Z,20.02
2022-09-04T08:41:24.574Z,19.92
2022-09-04T08:42:24.498Z,19.89
2022-09-04T08:43:24.426Z,19.95
2022-09-04T08:44:24.399Z,19.94
2022-09-04T08:45:24.272Z,19.99
2022-09-04T08:46:28.317Z,19.85
2022-09-04T08:47:24.124Z,19.86
2022-09-04T08:48:24.043Z,19.79
2022-09-04T08:49:23.970Z,19.88
2022-09-04T08:50:23.924Z,19.73
2022-09-04T08:51:24.365Z,19.77
2022-09-04T08:52:23.777Z,19.77
2022-09-04T08:53:23.683Z,19.73
2022-09-04T08:54:23.589Z,19.74
2022-09-04T08:55:23.516Z,19.79
2022-09-04T08:56:23.441Z,19.81
2022-09-04T08:57:23.386Z,19.82
2022-09-04T08:58:23.405Z,19.84
2022-09-04T08:59:23.215Z,19.84
2022-09-04T09:00:23.148Z,19.84
2022-09-04T09:01:23.091Z,19.86
2022-09-04T09:02:23.044Z,19.85
2022-09-04T09:03:22.924Z,19.88
2022-09-04T09:04:22.829Z,19.86
2022-09-04T09:05:23.050Z,19.92
2022-09-04T09:06:22.685Z,19.89
2022-09-04T09:07:22.606Z,19.96
2022-09-04T09:08:22.565Z,19.88
2022-09-04T09:09:22.457Z,19.96
2022-09-04T09:10:22.379Z,20.03
2022-09-04T09:11:22.301Z,20.09
2022-09-04T09:12:22.223Z,20.14
2022-09-04T09:13:22.151Z,20.11
2022-09-04T09:14:22.073Z,20.09
2022-09-04T09:15:22.027Z,20.11
2022-09-04T09:16:22.013Z,20.11
2022-09-04T09:17:21.851Z,20.24
2022-09-04T09:18:21.850Z,20.25
2022-09-04T09:19:21.696Z,20.31
2022-09-04T09:20:21.619Z,20.24
2022-09-04T09:21:21.547Z,20.24
2022-09-04T09:22:21.474Z,20.39
2022-09-04T09:23:21.441Z,20.40
2022-09-04T09:24:21.325Z,20.40
2022-09-04T09:25:21.287Z,20.41
2022-09-04T09:26:21.169Z,20.43
2022-09-04T09:27:21.115Z,20.48
2022-09-04T09:28:21.016Z,20.47
2022-09-04T09:29:20.941Z,20.50
2022-09-04T09:30:20.863Z,20.50
2022-09-04T09:31:20.830Z,20.51
2022-09-04T09:32:20.716Z,20.50
2022-09-04T09:33:20.696Z,20.50
2022-09-04T09:34:20.577Z,20.41
2022-09-04T09:35:20.488Z,20.41
2022-09-04T09:36:20.411Z,20.40
2022-09-04T09:37:20.335Z,20.40
2022-09-04T09:38:20.263Z,20.51
2022-09-04T09:39:20.238Z,20.50
2022-09-04T09:40:20.108Z,20.55
2022-09-04T09:41:20.033Z,20.58
2022-09-04T09:42:19.961Z,20.63
2022-09-04T09:43:19.979Z,20.67
2022-09-04T09:44:19.810Z,20.67
2022-09-04T09:45:19.729Z,20.63
2022-09-04T09:46:19.686Z,20.67
2022-09-04T09:47:19.578Z,20.66
2022-09-04T09:48:19.509Z,20.69
2022-09-04T09:49:19.431Z,20.63
2022-09-04T09:50:19.364Z,20.78
2022-09-04T09:51:19.278Z,20.74
2022-09-04T09:52:19.207Z,20.78
2022-09-04T09:53:19.225Z,20.72
2022-09-04T09:54:19.052Z,20.77
2022-09-04T09:55:18.989Z,20.80
2022-09-04T09:56:18.903Z,20.82
2022-09-04T09:57:18.828Z,20.84
2022-09-04T09:58:18.748Z,20.95
2022-09-04T09:59:18.674Z,20.96
2022-09-04T10:00:18.609Z,20.93
2022-09-04T10:01:18.564Z,21.07
2022-09-04T10:02:18.486Z,21.07
2022-09-04T10:03:18.371Z,21.18
2022-09-04T10:04:18.321Z,21.22
2022-09-04T10:05:18.228Z,21.30
2022-09-04T10:06:18.150Z,21.30
2022-09-04T10:07:18.073Z,21.27
2022-09-04T10:08:17.995Z,21.29
2022-09-04T10:09:17.921Z,21.37
2022-09-04T10:10:17.851Z,21.37
2022-09-04T10:11:17.768Z,21.33
2022-09-04T10:12:17.701Z,21.48
2022-09-04T10:13:17.620Z,21.40
2022-09-04T10:14:17.557Z,21.51
2022-09-04T10:15:17.478Z,21.52
2022-09-04T10:16:17.480Z,21.60
2022-09-04T10:17:17.324Z,21.62
2022-09-04T10:18:17.247Z,21.67
2022-09-04T10:19:17.168Z,21.72
2022-09-04T10:20:17.095Z,21.80
2022-09-04T10:21:17.022Z,21.73
2022-09-04T10:22:16.946Z,21.80
2022-09-04T10:23:16.873Z,22.02
2022-09-04T10:24:16.791Z,21.96
2022-09-04T10:25:16.720Z,21.99
2022-09-04T10:26:16.649Z,22.04
2022-09-04T10:27:16.567Z,22.08
2022-09-04T10:28:16.491Z,22.04
2022-09-04T10:29:16.420Z,22.13
2022-09-04T10:30:16.344Z,22.07
2022-09-04T10:31:16.323Z,22.17
2022-09-04T10:32:16.196Z,22.23
2022-09-04T10:33:16.116Z,22.29
2022-09-04T10:34:16.046Z,22.30
2022-09-04T10:35:15.969Z,22.38
2022-09-04T10:36:15.899Z,22.43
2022-09-04T10:37:15.822Z,22.47
2022-09-04T10:38:15.745Z,22.47
2022-09-04T10:39:15.671Z,22.53
2022-09-04T10:40:15.597Z,22.54
2022-09-04T10:41:15.523Z,22.60
2022-09-04T10:42:15.450Z,22.70
2022-09-04T10:43:15.371Z,22.80
2022-09-04T10:44:15.298Z,22.80
2022-09-04T10:45:15.226Z,22.96
2022-09-04T10:46:23.487Z,22.94
2022-09-04T10:47:15.077Z,23.02
2022-09-04T10:48:15.001Z,23.05
2022-09-04T10:49:14.924Z,23.02
2022-09-04T10:50:14.848Z,23.03
2022-09-04T10:51:14.774Z,23.09
2022-09-04T10:52:14.803Z,23.17
2022-09-04T10:53:14.627Z,23.10
2022-09-04T10:54:14.556Z,23.23
2022-09-04T10:55:14.477Z,23.23
2022-09-04T10:56:14.409Z,23.25
2022-09-04T10:57:14.331Z,23.31
2022-09-04T10:58:14.255Z,23.39
2022-09-04T10:59:14.181Z,23.40
2022-09-04T11:00:14.110Z,23.48
2022-09-04T11:01:14.114Z,23.58
2022-09-04T11:02:14.016Z,23.51
2022-09-04T11:03:13.907Z,23.66
2022-09-04T11:04:13.821Z,23.68
2022-09-04T11:05:13.743Z,23.76
2022-09-04T11:06:15.727Z,23.78
2022-09-04T11:07:13.592Z,23.81
2022-09-04T11:08:13.514Z,23.92
2022-09-04T11:09:13.441Z,24.06
2022-09-04T11:10:13.395Z,24.16
2022-09-04T11:11:13.294Z,24.20
2022-09-04T11:12:13.218Z,24.33
2022-09-04T11:13:13.146Z,24.54
2022-09-04T11:14:13.079Z,24.55
2022-09-04T11:15:13.001Z,24.66
2022-09-04T11:16:12.958Z,24.74
2022-09-04T11:17:12.858Z,24.69
2022-09-04T11:18:12.779Z,24.70
2022-09-04T11:19:12.706Z,24.88
2022-09-04T11:20:17.588Z,24.93
2022-09-04T11:21:12.563Z,24.81
2022-09-04T11:22:12.486Z,25.01
2022-09-04T11:23:12.413Z,25.14
2022-09-04T11:24:12.350Z,25.29
2022-09-04T11:25:12.264Z,25.22
2022-09-04T11:26:12.196Z,25.29
2022-09-04T11:27:12.121Z,25.38
2022-09-04T11:28:12.040Z,25.41
2022-09-04T11:29:11.978Z,25.51
2022-09-04T11:30:12.004Z,25.36
2022-09-04T11:31:11.886Z,25.36
2022-09-04T11:32:11.757Z,25.38
2022-09-04T11:33:11.688Z,25.51
2022-09-04T11:34:11.612Z,25.44
2022-09-04T11:35:11.535Z,25.35
2022-09-04T11:36:11.463Z,25.43
2022-09-04T11:37:11.390Z,25.54
2022-09-04T11:38:11.320Z,25.50
2022-09-04T11:39:11.245Z,25.63
2022-09-04T11:40:11.169Z,25.72
2022-09-04T11:41:11.102Z,25.72
2022-09-04T11:42:11.033Z,25.87
2022-09-04T11:43:10.953Z,25.99
2022-09-04T11:44:10.888Z,25.98
2022-09-04T11:45:10.810Z,25.96
2022-09-04T11:46:10.805Z,25.90
2022-09-04T11:47:10.663Z,25.88
2022-09-04T11:48:10.592Z,25.87
2022-09-04T11:49:10.519Z,25.81
2022-09-04T11:50:10.463Z,25.87
2022-09-04T11:51:10.390Z,25.83
2022-09-04T11:52:10.309Z,26.09
2022-09-04T11:53:10.232Z,26.34
2022-09-04T11:54:10.162Z,26.60
2022-09-04T11:55:10.086Z,26.84
2022-09-04T11:56:10.026Z,27.00
2022-09-04T11:57:09.941Z,27.35
2022-09-04T11:58:09.869Z,27.52
2022-09-04T11:59:09.799Z,27.75
2022-09-04T12:00:09.732Z,27.93
2022-09-04T12:01:10.235Z,28.12
2022-09-04T12:02:09.612Z,28.57
2022-09-04T12:03:09.512Z,28.74
2022-09-04T12:04:09.496Z,29.47
2022-09-04T12:05:09.376Z,30.31
2022-09-04T12:06:09.306Z,31.03
2022-09-04T12:07:09.227Z,31.29
2022-09-04T12:08:09.158Z,31.70
2022-09-04T12:09:09.087Z,32.22
2022-09-04T12:10:09.021Z,32.12
2022-09-04T12:11:08.949Z,31.51
2022-09-04T12:12:08.879Z,31.29
2022-09-04T12:13:15.186Z,30.99
2022-09-04T12:14:08.740Z,31.03
2022-09-04T12:15:09.486Z,31.74
2022-09-04T12:16:08.644Z,32.18
2022-09-04T12:17:08.529Z,32.36
2022-09-04T12:18:08.457Z,33.57
2022-09-04T12:19:08.387Z,34.39
2022-09-04T12:20:08.320Z,35.33
2022-09-04T12:21:08.253Z,35.92
2022-09-04T12:22:08.183Z,36.35
2022-09-04T12:23:08.109Z,36.30
2022-09-04T12:24:08.042Z,35.85
2022-09-04T12:25:07.980Z,35.98
2022-09-04T12:26:07.906Z,35.89
2022-09-04T12:27:07.846Z,35.24
2022-09-04T12:28:07.772Z,34.52
2022-09-04T12:29:07.712Z,34.03
2022-09-04T12:30:07.639Z,33.76
2022-09-04T12:31:07.570Z,33.14
2022-09-04T12:32:07.612Z,32.63
2022-09-04T12:33:08.289Z,32.14
2022-09-04T12:34:07.371Z,31.89
2022-09-04T12:35:07.306Z,31.64
2022-09-04T12:36:07.238Z,31.21
2022-09-04T12:37:07.176Z,30.96
2022-09-04T12:38:07.103Z,30.81
2022-09-04T12:39:07.032Z,30.83
2022-09-04T12:40:07.073Z,31.84
2022-09-04T12:41:06.899Z,33.28
2022-09-04T12:42:06.834Z,34.18
2022-09-04T12:43:06.760Z,35.17
2022-09-04T12:44:06.692Z,36.23
2022-09-04T12:45:06.629Z,36.81
2022-09-04T12:46:06.581Z,36.76
2022-09-04T12:47:06.494Z,37.70
2022-09-04T12:48:06.430Z,38.69
2022-09-04T12:49:06.359Z,39.36
2022-09-04T12:50:06.297Z,39.36
2022-09-04T12:51:06.232Z,39.77